createdAt,value
2019-03-30T00:01:14.213Z,480.47
2019-03-30T00:03:42.541Z,493.83
2019-03-30T00:06:11.232Z,476.67
2019-03-30T00:08:40.440Z,335.53
2019-03-30T00:11:09.258Z,453.37
2019-03-30T00:13:37.727Z,488.90
2019-03-30T00:16:06.194Z,447.53
2019-03-30T00:18:37.437Z,488.93
2019-03-30T00:21:06.034Z,465.43
2019-03-30T00:23:35.406Z,469.57
2019-03-30T00:26:03.923Z,452.47
2019-03-30T00:28:32.326Z,483.07
2019-03-30T00:31:00.813Z,455.97
2019-03-30T00:33:29.157Z,467.20
2019-03-30T00:35:57.799Z,463.37
2019-03-30T00:38:26.449Z,497.27
2019-03-30T00:40:55.214Z,445.60
2019-03-30T00:43:24.065Z,455.47
2019-03-30T00:45:52.399Z,496.53
2019-03-30T00:48:20.950Z,460.70
2019-03-30T00:50:49.164Z,492.57
2019-03-30T00:53:18.490Z,457.87
2019-03-30T00:55:47.194Z,441.50
2019-03-30T00:58:15.600Z,448.60
2019-03-30T01:00:43.805Z,436.10
2019-03-30T01:03:12.033Z,452.70
2019-03-30T01:05:40.622Z,465.37
2019-03-30T01:08:13.028Z,470.20
2019-03-30T01:10:41.490Z,451.33
2019-03-30T01:13:09.881Z,442.97
2019-03-30T01:15:38.230Z,431.50
2019-03-30T01:18:06.717Z,423.03
2019-03-30T01:20:35.326Z,439.43
2019-03-30T01:23:03.809Z,483.30
2019-03-30T01:25:32.387Z,447.37
2019-03-30T01:28:00.944Z,476.27
2019-03-30T01:30:29.170Z,460.37
2019-03-30T01:32:57.833Z,446.13
2019-03-30T01:35:26.919Z,446.90
2019-03-30T01:37:55.589Z,456.20
2019-03-30T01:40:23.897Z,471.33
2019-03-30T01:42:52.059Z,469.07
2019-03-30T01:45:20.404Z,460.20
2019-03-30T01:47:48.784Z,463.03
2019-03-30T01:50:18.239Z,456.50
2019-03-30T01:52:46.664Z,440.73
2019-03-30T01:55:15.015Z,461.67
2019-03-30T01:57:43.450Z,456.13
2019-03-30T02:00:12.766Z,480.47
2019-03-30T02:02:41.513Z,440.00
2019-03-30T02:05:10.282Z,517.93
2019-03-30T02:07:38.860Z,480.23
2019-03-30T02:10:08.365Z,466.90
2019-03-30T02:12:36.695Z,463.07
2019-03-30T02:15:05.766Z,467.67
2019-03-30T02:17:34.283Z,457.20
2019-03-30T02:20:03.173Z,470.37
2019-03-30T02:22:31.403Z,449.37
2019-03-30T02:24:59.736Z,458.87
2019-03-30T02:27:28.054Z,448.80
2019-03-30T02:29:56.267Z,459.53
2019-03-30T02:32:24.430Z,445.70
2019-03-30T02:34:52.756Z,487.97
2019-03-30T02:37:20.927Z,508.43
2019-03-30T02:39:49.520Z,477.73
2019-03-30T02:42:17.779Z,499.03
2019-03-30T02:44:46.030Z,461.03
2019-03-30T02:47:14.238Z,469.73
2019-03-30T02:49:42.414Z,486.13
2019-03-30T02:52:10.853Z,450.07
2019-03-30T02:54:39.162Z,493.07
2019-03-30T02:57:07.582Z,466.53
2019-03-30T02:59:36.131Z,474.97
2019-03-30T03:02:04.504Z,458.43
2019-03-30T03:04:33.911Z,496.33
2019-03-30T03:07:02.652Z,464.33
2019-03-30T03:09:31.148Z,468.53
2019-03-30T03:11:59.855Z,443.03
2019-03-30T03:14:28.072Z,532.67
2019-03-30T03:16:56.304Z,464.83
2019-03-30T03:19:24.727Z,529.67
2019-03-30T03:21:52.909Z,477.17
2019-03-30T03:24:21.485Z,490.50
2019-03-30T03:26:49.782Z,460.00
2019-03-30T03:29:18.447Z,483.70
2019-03-30T03:31:46.653Z,457.87
2019-03-30T03:34:15.072Z,481.77
2019-03-30T03:36:44.599Z,476.90
2019-03-30T03:39:12.883Z,480.50
2019-03-30T03:41:47.030Z,448.70
2019-03-30T03:44:15.321Z,474.63
2019-03-30T03:46:43.740Z,455.40
2019-03-30T03:49:12.258Z,473.27
2019-03-30T03:51:40.909Z,491.53
2019-03-30T03:54:09.597Z,484.67
2019-03-30T03:56:39.747Z,494.27
2019-03-30T03:59:13.562Z,466.47
2019-03-30T04:01:43.669Z,434.70
2019-03-30T04:04:13.701Z,472.17
2019-03-30T04:06:44.594Z,418.23
2019-03-30T04:09:15.503Z,455.87
2019-03-30T04:11:46.196Z,436.93
2019-03-30T04:14:17.119Z,448.20
2019-03-30T04:16:45.515Z,427.57
2019-03-30T04:19:13.936Z,458.30
2019-03-30T04:21:44.224Z,435.97
2019-03-30T04:24:12.345Z,447.87
2019-03-30T04:26:40.924Z,434.43
2019-03-30T04:29:28.563Z,349.57
2019-03-30T04:31:56.745Z,414.17
2019-03-30T04:34:24.990Z,438.37
2019-03-30T04:36:53.194Z,406.97
2019-03-30T04:39:21.804Z,492.37
2019-03-30T04:41:50.032Z,386.70
2019-03-30T04:44:18.473Z,448.63
2019-03-30T04:46:46.691Z,420.47
2019-03-30T04:49:15.032Z,435.40
2019-03-30T04:51:56.539Z,399.17
2019-03-30T04:54:13.515Z,433.13
2019-03-30T04:56:41.792Z,422.93
2019-03-30T04:59:11.058Z,436.63
2019-03-30T05:01:39.337Z,391.83
2019-03-30T05:04:07.503Z,407.73
2019-03-30T05:06:36.737Z,426.80
2019-03-30T05:09:06.094Z,397.07
2019-03-30T05:11:34.448Z,422.03
2019-03-30T05:14:02.852Z,430.13
2019-03-30T05:16:31.504Z,473.37
2019-03-30T05:18:59.638Z,425.93
2019-03-30T05:21:27.988Z,449.63
2019-03-30T05:23:56.358Z,411.43
2019-03-30T05:26:24.613Z,430.50
2019-03-30T05:28:53.223Z,420.20
2019-03-30T05:31:21.497Z,416.20
2019-03-30T05:33:49.679Z,412.07
2019-03-30T05:36:17.943Z,401.00
2019-03-30T05:38:46.326Z,417.60
2019-03-30T05:41:15.019Z,407.03
2019-03-30T05:43:43.286Z,421.63
2019-03-30T05:46:11.541Z,408.47
2019-03-30T05:48:39.939Z,408.00
2019-03-30T05:51:08.085Z,411.50
2019-03-30T05:53:36.231Z,461.83
2019-03-30T05:56:04.563Z,413.37
2019-03-30T05:58:32.944Z,453.23
2019-03-30T06:01:01.087Z,421.60
2019-03-30T06:03:30.513Z,418.50
2019-03-30T06:05:58.790Z,418.63
2019-03-30T06:08:27.137Z,423.43
2019-03-30T06:10:55.349Z,420.37
2019-03-30T06:13:23.615Z,404.63
2019-03-30T06:15:51.821Z,401.30
2019-03-30T06:18:19.960Z,407.40
2019-03-30T06:20:48.237Z,421.40
2019-03-30T06:23:16.525Z,412.87
2019-03-30T06:25:44.700Z,414.80
2019-03-30T06:28:15.699Z,398.23
2019-03-30T06:30:44.109Z,462.87
2019-03-30T06:33:12.718Z,404.63
2019-03-30T06:35:40.861Z,440.40
2019-03-30T06:38:09.332Z,404.77
2019-03-30T06:40:37.600Z,418.63
2019-03-30T06:43:07.761Z,409.20
2019-03-30T06:45:35.917Z,409.03
2019-03-30T06:48:04.259Z,402.43
2019-03-30T06:50:32.549Z,390.60
2019-03-30T06:53:00.741Z,376.80
2019-03-30T06:55:29.087Z,388.07
2019-03-30T06:57:57.434Z,369.47
2019-03-30T07:00:33.228Z,404.30
2019-03-30T07:03:04.900Z,419.83
2019-03-30T07:05:38.270Z,384.17
2019-03-30T07:08:11.078Z,417.60
2019-03-30T07:10:39.601Z,375.23
2019-03-30T07:13:09.362Z,400.10
2019-03-30T07:15:44.870Z,373.50
2019-03-30T07:18:14.128Z,436.97
2019-03-30T07:20:42.705Z,387.43
2019-03-30T07:23:12.909Z,381.20
2019-03-30T07:25:41.301Z,377.13
2019-03-30T07:28:09.742Z,392.57
2019-03-30T07:30:38.127Z,376.43
2019-03-30T07:33:06.814Z,390.47
2019-03-30T07:39:04.009Z,366.70
2019-03-30T07:41:34.083Z,345.00
2019-03-30T07:47:07.528Z,363.90
2019-03-30T07:49:36.216Z,376.77
2019-03-30T07:52:08.217Z,426.03
2019-03-30T07:54:40.496Z,361.03
2019-03-30T07:57:16.828Z,355.07
2019-03-30T07:59:39.306Z,359.43
2019-03-30T08:02:10.721Z,335.53
2019-03-30T08:04:39.703Z,373.13
2019-03-30T08:07:08.571Z,363.53
2019-03-30T08:09:37.328Z,373.60
2019-03-30T08:12:05.946Z,347.40
2019-03-30T08:14:35.519Z,373.47
2019-03-30T08:17:04.047Z,357.50
2019-03-30T08:19:33.736Z,371.57
2019-03-30T08:22:02.551Z,361.43
2019-03-30T08:24:31.290Z,377.43
2019-03-30T08:27:00.744Z,401.43
2019-03-30T08:29:30.280Z,378.50
2019-03-30T08:31:59.450Z,326.23
2019-03-30T08:34:28.266Z,379.57
2019-03-30T08:36:59.264Z,352.83
2019-03-30T08:39:28.803Z,367.23
2019-03-30T08:41:57.185Z,331.53
2019-03-30T08:44:25.554Z,353.33
2019-03-30T08:46:53.870Z,357.30
2019-03-30T08:49:22.290Z,357.93
2019-03-30T08:51:50.664Z,333.57
2019-03-30T08:54:19.109Z,408.53
2019-03-30T08:56:47.295Z,360.53
2019-03-30T08:59:15.905Z,418.87
2019-03-30T09:01:44.205Z,322.00
2019-03-30T09:04:13.922Z,360.43
2019-03-30T09:06:42.327Z,336.07
2019-03-30T09:09:10.890Z,400.77
2019-03-30T09:11:39.513Z,335.67
2019-03-30T09:14:07.883Z,367.10
2019-03-30T09:16:36.938Z,311.20
2019-03-30T09:19:07.773Z,345.40
2019-03-30T09:21:36.217Z,323.93
2019-03-30T09:24:10.118Z,369.43
2019-03-30T09:26:35.472Z,309.87
2019-03-30T09:29:04.114Z,359.97
2019-03-30T09:31:32.576Z,336.77
2019-03-30T09:34:05.573Z,337.93
2019-03-30T09:36:34.534Z,370.07
2019-03-30T09:39:06.296Z,334.80
2019-03-30T09:41:34.810Z,325.70
2019-03-30T09:44:03.792Z,319.23
2019-03-30T09:46:32.419Z,383.53
2019-03-30T09:49:00.870Z,339.80
2019-03-30T09:51:29.144Z,331.40
2019-03-30T09:53:57.490Z,338.70
2019-03-30T09:56:25.949Z,356.13
2019-03-30T09:58:54.495Z,314.83
2019-03-30T10:01:24.475Z,345.60
2019-03-30T10:03:53.260Z,324.67
2019-03-30T10:06:33.484Z,293.73
2019-03-30T10:08:51.894Z,317.23
2019-03-30T10:11:20.203Z,337.93
2019-03-30T10:13:48.418Z,373.67
2019-03-30T10:16:16.656Z,316.00
2019-03-30T10:18:45.087Z,289.20
2019-03-30T10:21:13.343Z,310.17
2019-03-30T10:23:41.748Z,388.60
2019-03-30T10:26:10.043Z,301.67
2019-03-30T10:28:38.345Z,314.40
2019-03-30T10:31:06.563Z,318.07
2019-03-30T10:33:34.720Z,309.77
2019-03-30T10:36:03.234Z,294.00
2019-03-30T10:38:31.746Z,322.75
2019-03-30T10:41:00.247Z,291.55
2019-03-30T10:43:28.566Z,315.73
2019-03-30T10:45:57.264Z,330.45
2019-03-30T10:48:25.880Z,316.70
2019-03-30T10:50:54.596Z,351.25
2019-03-30T10:53:23.098Z,338.55
2019-03-30T10:55:51.567Z,301.73
2019-03-30T10:58:20.363Z,315.75
2019-03-30T11:00:48.539Z,388.18
2019-03-30T11:03:16.873Z,307.98
2019-03-30T11:05:45.849Z,292.82
2019-03-30T11:08:14.273Z,316.95
2019-03-30T11:10:43.082Z,327.68
2019-03-30T11:13:11.670Z,315.90
2019-03-30T11:15:40.321Z,315.50
2019-03-30T11:18:09.315Z,317.07
2019-03-30T11:20:38.328Z,313.18
2019-03-30T11:23:06.854Z,354.48
2019-03-30T11:25:36.031Z,296.57
2019-03-30T11:28:04.540Z,324.07
2019-03-30T11:30:33.494Z,292.50
2019-03-30T11:33:01.844Z,296.68
2019-03-30T11:35:30.735Z,336.25
2019-03-30T11:37:59.167Z,377.93
2019-03-30T11:40:28.936Z,275.68
2019-03-30T11:42:59.104Z,312.57
2019-03-30T11:45:46.865Z,268.33
2019-03-30T11:48:18.673Z,305.70
2019-03-30T11:50:47.093Z,294.35
2019-03-30T11:53:15.389Z,299.55
2019-03-30T11:55:43.704Z,307.12
2019-03-30T11:58:12.454Z,307.75
2019-03-30T12:00:40.950Z,294.55
2019-03-30T12:03:09.262Z,291.73
2019-03-30T12:05:38.209Z,350.98
2019-03-30T12:08:06.567Z,317.50
2019-03-30T12:10:34.939Z,322.30
2019-03-30T12:13:03.300Z,287.68
2019-03-30T12:15:32.104Z,315.92
2019-03-30T12:18:00.458Z,301.82
2019-03-30T12:20:28.801Z,286.77
2019-03-30T12:22:57.910Z,315.43
2019-03-30T12:25:35.285Z,347.77
2019-03-30T12:27:57.536Z,335.45
2019-03-30T12:30:26.331Z,348.50
2019-03-30T12:32:54.812Z,314.55
2019-03-30T12:35:23.358Z,311.12
2019-03-30T12:37:52.095Z,301.05
2019-03-30T12:40:22.149Z,295.52
2019-03-30T12:43:38.894Z,275.87
2019-03-30T12:46:06.564Z,329.07
2019-03-30T12:48:35.279Z,322.45
2019-03-30T12:51:04.343Z,344.20
2019-03-30T12:53:33.191Z,347.12
2019-03-30T12:56:01.927Z,304.98
2019-03-30T12:58:30.545Z,356.00
2019-03-30T13:00:58.861Z,322.45
2019-03-30T13:03:29.652Z,308.45
2019-03-30T13:05:58.069Z,316.02
2019-03-30T13:08:26.386Z,297.07
2019-03-30T13:10:54.837Z,316.93
2019-03-30T13:13:23.297Z,345.30
2019-03-30T13:15:51.950Z,328.60
2019-03-30T13:18:22.155Z,376.90
2019-03-30T13:23:45.755Z,378.30
2019-03-30T13:26:14.904Z,323.17
2019-03-30T13:28:44.057Z,322.67
2019-03-30T13:31:13.690Z,306.50
2019-03-30T13:33:42.346Z,309.53
2019-03-30T13:36:11.869Z,338.93
2019-03-30T13:38:40.780Z,336.23
2019-03-30T13:41:09.613Z,388.70
2019-03-30T13:43:39.971Z,332.67
2019-03-30T13:46:10.694Z,332.67
2019-03-30T13:48:39.691Z,327.63
2019-03-30T13:51:08.573Z,323.33
2019-03-30T13:53:38.157Z,326.03
2019-03-30T13:56:17.193Z,321.90
2019-03-30T13:58:39.776Z,301.43
2019-03-30T14:01:08.152Z,302.67
2019-03-30T14:03:37.567Z,297.77
2019-03-30T14:06:07.234Z,345.20
2019-03-30T14:08:35.446Z,295.00
2019-03-30T14:11:04.713Z,347.90
2019-03-30T14:13:32.973Z,296.67
2019-03-30T14:16:03.838Z,309.67
2019-03-30T14:18:32.769Z,314.63
2019-03-30T14:21:02.771Z,312.53
2019-03-30T14:23:32.534Z,365.17
2019-03-30T14:26:01.384Z,303.67
2019-03-30T14:28:30.968Z,303.07
2019-03-30T14:30:59.276Z,311.80
2019-03-30T14:33:27.697Z,321.60
2019-03-30T14:35:56.283Z,309.33
2019-03-30T14:38:24.686Z,307.37
2019-03-30T14:40:52.991Z,309.60
2019-03-30T14:43:21.364Z,343.13
2019-03-30T14:45:50.087Z,315.13
2019-03-30T14:51:46.433Z,304.27
2019-03-30T14:54:15.228Z,365.57
2019-03-30T14:56:45.719Z,310.97
2019-03-30T14:59:14.518Z,355.93
2019-03-30T15:01:42.883Z,331.47
2019-03-30T15:04:11.543Z,387.37
2019-03-30T15:06:40.228Z,315.27
2019-03-30T15:09:09.770Z,370.40
2019-03-30T15:11:38.721Z,324.73
2019-03-30T15:14:06.997Z,343.90
2019-03-30T15:16:35.687Z,371.30
2019-03-30T15:19:04.041Z,365.70
2019-03-30T15:21:32.612Z,300.17
2019-03-30T15:24:00.978Z,352.93
2019-03-30T15:26:29.432Z,315.03
2019-03-30T15:28:58.247Z,354.23
2019-03-30T15:31:26.968Z,332.37
2019-03-30T15:33:56.011Z,324.97
2019-03-30T15:36:24.565Z,334.63
2019-03-30T15:38:52.927Z,330.57
2019-03-30T15:41:21.235Z,378.33
2019-03-30T15:43:52.134Z,316.87
2019-03-30T15:46:20.844Z,354.23
2019-03-30T15:48:51.927Z,228.90
2019-03-30T15:51:21.269Z,243.70
2019-03-30T15:53:55.257Z,277.30
2019-03-30T15:56:24.886Z,240.80
2019-03-30T15:58:54.582Z,247.10
2019-03-30T16:01:27.388Z,217.53
2019-03-30T16:07:54.737Z,258.10
2019-03-30T16:10:24.060Z,224.03
2019-03-30T16:12:54.258Z,230.93
2019-03-30T16:15:25.106Z,250.57
2019-03-30T16:18:15.713Z,220.53
2019-03-30T16:20:45.919Z,216.97
2019-03-30T16:23:15.538Z,229.07
2019-03-30T16:25:46.003Z,261.70
2019-03-30T16:31:51.224Z,331.93
2019-03-30T16:34:19.571Z,423.73
2019-03-30T16:36:51.119Z,344.53
2019-03-30T16:39:20.211Z,373.67
2019-03-30T16:41:48.676Z,351.70
2019-03-30T16:47:40.992Z,363.40
2019-03-30T16:50:10.066Z,421.57
2019-03-30T16:52:41.098Z,396.37
2019-03-30T16:55:10.184Z,424.40
2019-03-30T16:57:43.542Z,421.73
2019-03-30T17:00:12.368Z,361.97
2019-03-30T17:02:40.927Z,382.50
2019-03-30T17:05:09.879Z,371.67
2019-03-30T17:07:38.971Z,343.67
2019-03-30T17:10:32.614Z,348.73
2019-03-30T17:13:01.265Z,357.90
2019-03-30T17:15:29.534Z,365.40
2019-03-30T17:17:58.478Z,374.83
2019-03-30T17:20:26.740Z,364.50
2019-03-30T17:22:58.586Z,371.00
2019-03-30T17:25:25.369Z,356.23
2019-03-30T17:27:58.538Z,388.37
2019-03-30T17:30:24.434Z,347.80
2019-03-30T17:32:53.095Z,360.17
2019-03-30T17:35:21.742Z,384.57
2019-03-30T17:37:50.546Z,417.43
2019-03-30T17:40:19.126Z,373.97
2019-03-30T17:42:47.372Z,401.60
2019-03-30T17:45:15.739Z,413.10
2019-03-30T17:47:44.234Z,394.23
2019-03-30T17:50:15.892Z,410.50
2019-03-30T17:52:44.739Z,370.30
2019-03-30T17:55:14.095Z,378.63
2019-03-30T17:57:43.033Z,368.30
2019-03-30T18:00:15.959Z,377.97
2019-03-30T18:02:45.162Z,382.73
2019-03-30T18:05:13.804Z,380.33
2019-03-30T18:07:42.302Z,395.53
2019-03-30T18:10:12.126Z,431.37
2019-03-30T18:12:40.510Z,414.33
2019-03-30T18:15:09.918Z,404.37
2019-03-30T18:17:38.316Z,390.57
2019-03-30T18:20:07.587Z,415.20
2019-03-30T18:22:36.132Z,413.90
2019-03-30T18:25:05.748Z,385.77
2019-03-30T18:27:34.534Z,432.23
2019-03-30T18:30:03.494Z,402.77
2019-03-30T18:32:36.238Z,384.67
2019-03-30T18:35:07.550Z,392.63
2019-03-30T18:37:39.655Z,390.67
2019-03-30T18:40:12.524Z,366.77
2019-03-30T18:42:41.841Z,380.07
2019-03-30T18:45:23.840Z,387.83
2019-03-30T18:47:53.682Z,379.83
2019-03-30T18:50:22.495Z,396.30
2019-03-30T18:52:51.832Z,403.03
2019-03-30T18:55:23.408Z,383.73
2019-03-30T18:57:51.817Z,381.37
2019-03-30T19:00:26.313Z,403.37
2019-03-30T19:02:54.486Z,367.47
2019-03-30T19:05:22.820Z,390.57
2019-03-30T19:07:51.863Z,409.60
2019-03-30T19:10:20.602Z,467.20
2019-03-30T19:12:49.505Z,435.83
2019-03-30T19:15:18.734Z,396.67
2019-03-30T19:17:48.379Z,420.27
2019-03-30T19:20:16.864Z,405.63
2019-03-30T19:22:45.639Z,401.13
2019-03-30T19:25:14.307Z,409.60
2019-03-30T19:27:42.499Z,400.40
2019-03-30T19:30:11.246Z,410.17
2019-03-30T19:32:40.122Z,422.43
2019-03-30T19:35:09.308Z,392.43
2019-03-30T19:37:37.582Z,387.30
2019-03-30T19:40:06.524Z,422.47
2019-03-30T19:42:34.750Z,404.67
2019-03-30T19:45:06.907Z,460.23
2019-03-30T19:47:35.674Z,421.13
2019-03-30T19:50:05.829Z,416.93
2019-03-30T19:52:40.195Z,459.43
2019-03-30T19:55:04.917Z,432.27
2019-03-30T19:57:33.535Z,395.33
2019-03-30T20:00:01.997Z,419.57
2019-03-30T20:02:32.465Z,401.97
2019-03-30T20:05:01.806Z,427.67
2019-03-30T20:07:31.670Z,407.40
2019-03-30T20:10:00.513Z,447.70
2019-03-30T20:12:30.340Z,418.70
2019-03-30T20:14:59.063Z,415.50
2019-03-30T20:17:27.487Z,426.53
2019-03-30T20:19:55.909Z,454.97
2019-03-30T20:22:25.774Z,432.10
2019-03-30T20:24:53.965Z,465.27
2019-03-30T20:27:23.282Z,429.97
2019-03-30T20:29:52.726Z,510.80
2019-03-30T20:32:21.391Z,421.53
2019-03-30T20:34:49.645Z,426.07
2019-03-30T20:37:17.926Z,430.23
2019-03-30T20:39:46.321Z,454.90
2019-03-30T20:42:14.874Z,419.93
2019-03-30T20:44:43.160Z,430.97
2019-03-30T20:47:11.529Z,444.23
2019-03-30T20:49:40.090Z,447.03
2019-03-30T20:52:08.665Z,417.83
2019-03-30T20:54:37.146Z,433.77
2019-03-30T20:57:05.602Z,430.37
2019-03-30T20:59:40.227Z,446.47
2019-03-30T21:02:04.461Z,416.93
2019-03-30T21:04:33.328Z,465.07
2019-03-30T21:07:01.622Z,448.17
2019-03-30T21:09:30.151Z,471.87
2019-03-30T21:11:58.359Z,423.27
2019-03-30T21:14:26.667Z,437.60
2019-03-30T21:16:55.183Z,430.80
2019-03-30T21:19:23.428Z,461.40
2019-03-30T21:21:51.871Z,430.87
2019-03-30T21:24:20.106Z,460.10
2019-03-30T21:26:48.536Z,423.83
2019-03-30T21:29:17.271Z,456.97
2019-03-30T21:31:49.096Z,431.00
2019-03-30T21:34:16.195Z,446.43
2019-03-30T21:36:44.702Z,426.00
2019-03-30T21:39:12.896Z,456.40
2019-03-30T21:41:41.587Z,425.27
2019-03-30T21:44:21.436Z,503.17
2019-03-30T21:46:40.120Z,417.17
2019-03-30T21:49:08.457Z,466.73
2019-03-30T21:51:36.667Z,441.10
2019-03-30T21:54:05.215Z,439.03
2019-03-30T21:56:34.395Z,449.80
2019-03-30T21:59:02.963Z,437.30
2019-03-30T22:01:31.435Z,409.17
2019-03-30T22:03:59.688Z,432.03
2019-03-30T22:06:28.125Z,423.07
2019-03-30T22:08:56.640Z,440.20
2019-03-30T22:11:25.019Z,457.03
2019-03-30T22:13:53.535Z,456.77
2019-03-30T22:16:21.846Z,436.40
2019-03-30T22:18:50.536Z,432.37
2019-03-30T22:21:19.117Z,461.37
2019-03-30T22:23:47.431Z,421.17
2019-03-30T22:26:15.903Z,434.27
2019-03-30T22:28:44.188Z,421.70
2019-03-30T22:31:12.741Z,438.47
2019-03-30T22:33:41.056Z,434.23
2019-03-30T22:36:09.492Z,414.47
2019-03-30T22:38:37.776Z,434.73
2019-03-30T22:41:06.216Z,434.37
2019-03-30T22:43:34.388Z,440.03
2019-03-30T22:46:02.831Z,429.57
2019-03-30T22:48:31.362Z,437.90
2019-03-30T22:50:59.859Z,468.00
2019-03-30T22:53:28.284Z,475.63
2019-03-30T22:55:57.496Z,434.43
2019-03-30T22:58:26.110Z,430.33
2019-03-30T23:01:13.206Z,438.10
2019-03-30T23:03:44.617Z,441.40
2019-03-30T23:06:12.896Z,437.53
2019-03-30T23:08:42.006Z,461.13
2019-03-30T23:11:10.333Z,438.03
2019-03-30T23:13:38.618Z,439.97
2019-03-30T23:16:07.031Z,430.67
2019-03-30T23:18:36.065Z,447.47
2019-03-30T23:21:04.434Z,431.90
2019-03-30T23:23:32.755Z,458.50
2019-03-30T23:26:01.192Z,438.73
2019-03-30T23:28:30.428Z,447.33
2019-03-30T23:30:59.058Z,444.47
2019-03-30T23:33:27.352Z,480.40
2019-03-30T23:35:55.945Z,457.13
2019-03-30T23:38:24.381Z,462.33
2019-03-30T23:40:53.426Z,431.07
2019-03-30T23:43:21.729Z,426.70
2019-03-30T23:45:50.194Z,438.07
2019-03-30T23:48:18.966Z,420.23
2019-03-30T23:50:47.489Z,425.27
2019-03-30T23:53:15.936Z,443.37
2019-03-30T23:55:44.215Z,442.33
2019-03-30T23:58:13.624Z,459.73
